Terminal Aerodrome Forecast
Issued by NWS

Home | Current Version | Previous Version | Text Only | Print | Product List | Glossary On
Versions: 1 2 3 4 5 6 7 8 9 10 11 12
000
FTUS44 KJAN 312335
TAFGTR
TAF
KGTR 312335Z 0100/0124 02005KT P6SM FEW050 FEW090
     FM011100 36006KT 6SM BR FEW050 FEW250
     FM011300 01007KT P6SM FEW250
     FM011800 36010G18KT P6SM SCT050 SCT250=

USA.gov is the U.S. government's official web portal to all federal, state and local government web resources and services.